Time;durP1;ratioP1;P1;durP2;ratioP2;P2;SDS_P1;SDS_P2;PMS_P1;PMS_P2;Temp;Humidity;BMP_temperature;BMP_pressure;BME280_temperature;BME280_humidity;BME280_pressure;Samples;Min_cycle;Max_cycle;Signal;HPM_P1;HPM_P2
2023/03/31 00:00:22;;;;;;;5.90;3.10;;;;;;;4.55;48.49;98205.22;105271;1264;74101;-25
2023/03/31 00:02:58;;;;;;;9.40;3.50;;;;;;;4.53;48.04;98201.70;105187;1264;61240;-25
2023/03/31 00:05:32;;;;;;;4.90;3.00;;;;;;;4.53;48.55;98195.69;105200;1267;61716;-25
2023/03/31 00:08:00;;;;;;;6.50;3.50;;;;;;;4.53;47.69;98189.02;105201;1264;74468;-24
2023/03/31 00:10:32;;;;;;;7.80;3.20;;;;;;;4.50;47.63;98186.12;105227;1269;75914;-25
2023/03/31 00:13:04;;;;;;;6.80;3.30;;;;;;;4.49;48.44;98179.14;104923;1264;73697;-25
2023/03/31 00:15:33;;;;;;;6.20;3.80;;;;;;;4.44;48.09;98177.76;105114;1264;61087;-24
2023/03/31 00:18:02;;;;;;;6.70;3.30;;;;;;;4.40;48.11;98172.41;105158;1268;61936;-24
2023/03/31 00:20:36;;;;;;;5.20;2.50;;;;;;;4.38;47.63;98170.69;104963;1267;73363;-25
2023/03/31 00:23:09;;;;;;;5.50;3.20;;;;;;;4.36;48.20;98165.84;104951;1269;75287;-24
2023/03/31 00:25:40;;;;;;;8.80;3.60;;;;;;;4.32;48.00;98158.64;104884;1267;74212;-24
2023/03/31 00:28:08;;;;;;;6.90;3.30;;;;;;;4.29;48.19;98155.28;105164;1264;61112;-24
2023/03/31 00:30:37;;;;;;;5.40;3.40;;;;;;;4.26;48.26;98148.44;105233;1269;62340;-25
2023/03/31 00:33:05;;;;;;;6.70;3.80;;;;;;;4.20;48.24;98141.80;105168;1264;74639;-25
2023/03/31 00:35:38;;;;;;;7.60;4.20;;;;;;;4.15;48.25;98137.98;104942;1264;75573;-25
2023/03/31 00:38:12;;;;;;;6.60;3.70;;;;;;;4.13;48.64;98140.22;105130;1269;72514;-24
2023/03/31 00:40:47;;;;;;;6.20;3.30;;;;;;;4.13;48.38;98135.94;105726;1259;61157;-24
2023/03/31 00:43:33;;;;;;;8.00;3.60;;;;;;;4.12;48.59;98125.17;105707;1254;62187;-24
2023/03/31 00:46:05;;;;;;;11.00;3.90;;;;;;;4.10;49.19;98117.55;105733;1254;74869;-25
2023/03/31 00:48:35;;;;;;;12.10;3.60;;;;;;;4.06;49.18;98120.42;105694;1254;75772;-24
2023/03/31 00:51:05;;;;;;;7.90;3.40;;;;;;;4.00;49.63;98126.50;105839;1254;74399;-24
2023/03/31 00:53:34;;;;;;;5.00;2.20;;;;;;;3.97;50.06;98123.09;105642;1259;61164;-24
2023/03/31 00:56:08;;;;;;;6.20;2.70;;;;;;;3.94;50.58;98122.32;105573;1259;61883;-25
2023/03/31 00:58:42;;;;;;;6.80;3.50;;;;;;;3.91;50.91;98122.99;105462;1260;74797;-25
2023/03/31 01:01:18;;;;;;;4.00;2.80;;;;;;;3.84;51.31;98119.20;105470;1254;75848;-24
2023/03/31 01:03:49;;;;;;;4.30;2.40;;;;;;;3.78;51.56;98123.05;105521;1254;73100;-25
2023/03/31 01:06:22;;;;;;;7.20;3.50;;;;;;;3.77;51.60;98126.20;105512;1255;61099;-25
2023/03/31 01:08:51;;;;;;;8.00;3.30;;;;;;;3.73;51.74;98127.33;105520;1254;61536;-25
2023/03/31 01:11:23;;;;;;;5.30;3.10;;;;;;;3.70;52.06;98132.64;105525;1257;73483;-24
2023/03/31 01:13:54;;;;;;;5.80;3.20;;;;;;;3.68;52.53;98136.89;105686;1255;75690;-24
2023/03/31 01:16:23;;;;;;;7.00;4.10;;;;;;;3.66;52.37;98137.91;105605;1254;74514;-24
2023/03/31 01:18:56;;;;;;;6.90;3.10;;;;;;;3.66;52.33;98139.10;105505;1254;61174;-25
2023/03/31 01:21:55;;;;;;;5.90;3.00;;;;;;;3.65;52.70;98133.88;105503;1254;60988;-24
2023/03/31 01:24:46;;;;;;;8.60;3.50;;;;;;;3.60;52.75;98128.19;105897;1254;74622;-24
2023/03/31 01:27:42;;;;;;;6.10;3.10;;;;;;;3.57;53.09;98127.00;105646;1254;75820;-24
2023/03/31 01:30:35;;;;;;;4.00;2.20;;;;;;;3.54;53.19;98118.98;105570;1259;74378;-25
2023/03/31 01:41:10;;;;;;;8.00;4.10;;;;;;;3.56;53.53;98102.71;102934;1289;600131;-25
2023/03/31 01:43:51;;;;;;;6.20;3.60;;;;;;;3.56;53.76;98100.98;104830;1272;61177;-25
2023/03/31 01:46:27;;;;;;;5.40;3.30;;;;;;;3.56;53.78;98097.92;104795;1267;61249;-26
2023/03/31 01:49:11;;;;;;;6.00;3.50;;;;;;;3.54;54.14;98094.96;104772;1273;73887;-25
2023/03/31 01:51:49;;;;;;;5.40;3.00;;;;;;;3.53;54.65;98089.34;104795;1266;76290;-25
2023/03/31 01:54:22;;;;;;;5.70;2.80;;;;;;;3.53;54.72;98077.85;103893;1257;2131748;-25
2023/03/31 01:57:11;;;;;;;5.90;3.60;;;;;;;3.53;55.09;98072.71;105647;1257;61130;-26
2023/03/31 01:59:55;;;;;;;7.80;3.20;;;;;;;3.51;55.34;98070.65;105487;1263;61886;-25
2023/03/31 02:02:31;;;;;;;7.70;3.50;;;;;;;3.50;55.59;98073.24;105291;1262;73747;-25
2023/03/31 02:05:04;;;;;;;6.70;3.70;;;;;;;3.50;55.72;98067.58;105475;1259;74514;-26
2023/03/31 02:08:20;;;;;;;8.50;3.90;;;;;;;3.49;55.95;98066.13;105464;1257;73983;-25
2023/03/31 02:10:49;;;;;;;5.30;2.40;;;;;;;3.48;56.68;98068.42;105378;1258;61159;-25
2023/03/31 02:13:20;;;;;;;4.30;2.90;;;;;;;3.44;56.87;98059.59;105497;1258;61688;-25
2023/03/31 02:15:51;;;;;;;8.80;3.90;;;;;;;3.42;57.05;98058.69;105429;1263;72539;-25
2023/03/31 02:18:24;;;;;;;7.20;3.30;;;;;;;3.39;57.00;98053.75;105308;1263;75296;-25
2023/03/31 02:20:53;;;;;;;6.50;3.60;;;;;;;3.38;57.11;98047.44;105170;1258;74058;-25
2023/03/31 02:23:25;;;;;;;4.40;2.60;;;;;;;3.37;57.19;98041.86;105109;1257;61144;-25
2023/03/31 02:25:59;;;;;;;4.00;1.90;;;;;;;3.35;57.38;98037.05;105135;1262;61654;-25
2023/03/31 02:28:28;;;;;;;7.50;3.90;;;;;;;3.34;57.41;98034.48;105106;1263;74586;-26
2023/03/31 02:31:35;;;;;;;4.90;3.30;;;;;;;3.33;57.63;98036.45;105184;1257;75647;-26
2023/03/31 02:34:07;;;;;;;7.80;3.60;;;;;;;3.32;57.84;98034.17;105092;1263;73559;-26
2023/03/31 02:36:36;;;;;;;6.00;3.30;;;;;;;3.30;58.17;98033.10;105537;1257;61004;-25
2023/03/31 02:39:16;;;;;;;8.00;3.70;;;;;;;3.29;58.51;98027.17;105347;1257;61938;-25
2023/03/31 02:41:46;;;;;;;8.60;3.50;;;;;;;3.28;58.75;98023.92;105177;1257;73473;-23
2023/03/31 02:44:15;;;;;;;8.00;2.50;;;;;;;3.27;58.65;98020.70;105182;1263;75902;-25
2023/03/31 02:46:45;;;;;;;4.40;3.10;;;;;;;3.27;59.04;98015.75;105240;1263;74039;-25
2023/03/31 02:49:14;;;;;;;8.20;3.20;;;;;;;3.27;59.28;98014.23;105523;1260;61071;-25
2023/03/31 02:52:00;;;;;;;6.10;3.60;;;;;;;3.26;59.68;98020.27;105497;1263;61161;-25
2023/03/31 02:54:28;;;;;;;6.70;4.00;;;;;;;3.26;60.13;98016.20;105328;1263;74547;-23
2023/03/31 02:57:09;;;;;;;4.70;3.10;;;;;;;3.25;60.28;98015.91;105622;1262;75307;-23
2023/03/31 03:00:00;;;;;;;5.40;2.40;;;;;;;3.24;60.30;98012.02;105512;1258;74184;-23
2023/03/31 03:03:08;;;;;;;5.80;2.30;;;;;;;3.24;60.59;98010.50;105447;1258;61077;-25
2023/03/31 03:05:48;;;;;;;2.20;1.70;;;;;;;3.25;60.70;98006.32;105153;1263;61842;-26
2023/03/31 03:09:05;;;;;;;7.20;3.90;;;;;;;3.25;60.65;98005.80;105096;1263;74849;-25
2023/03/31 03:11:53;;;;;;;5.60;3.00;;;;;;;3.26;60.85;98002.27;105304;1265;75156;-27
2023/03/31 03:14:24;;;;;;;6.30;3.50;;;;;;;3.25;61.08;97997.38;105240;1263;74207;-25
2023/03/31 03:17:06;;;;;;;3.80;2.40;;;;;;;3.25;61.36;97994.60;105142;1257;61057;-23
2023/03/31 03:19:34;;;;;;;9.10;4.00;;;;;;;3.24;61.90;97990.23;105140;1257;61058;-25
2023/03/31 03:22:03;;;;;;;5.30;3.20;;;;;;;3.21;62.47;97991.46;105218;1258;73551;-25
2023/03/31 03:24:34;;;;;;;6.10;3.30;;;;;;;3.20;62.64;97985.39;105239;1266;75839;-23
2023/03/31 03:27:07;;;;;;;8.40;4.10;;;;;;;3.20;62.93;97980.77;105224;1257;73728;-23
2023/03/31 03:29:36;;;;;;;4.10;2.40;;;;;;;3.22;63.04;97981.64;105280;1261;62023;-24
2023/03/31 03:32:05;;;;;;;6.70;3.50;;;;;;;3.23;62.79;97976.05;105594;1262;61522;-23
2023/03/31 03:34:34;;;;;;;4.20;2.60;;;;;;;3.25;63.12;97971.16;105643;1262;74338;-24
2023/03/31 03:37:03;;;;;;;10.30;4.80;;;;;;;3.24;62.98;97971.54;105636;1257;76173;-23
2023/03/31 03:39:32;;;;;;;9.20;4.50;;;;;;;3.24;63.07;97967.60;105649;1263;74233;-24
2023/03/31 03:42:01;;;;;;;8.30;3.90;;;;;;;3.25;63.47;97969.11;105589;1263;61141;-23
2023/03/31 03:44:29;;;;;;;7.90;4.30;;;;;;;3.26;63.39;97968.17;105170;1258;61602;-24
2023/03/31 03:46:59;;;;;;;6.90;3.40;;;;;;;3.26;63.26;97964.73;105459;1258;74587;-24
2023/03/31 03:49:28;;;;;;;6.40;3.80;;;;;;;3.25;63.57;97962.39;105551;1264;75677;-23
2023/03/31 03:51:57;;;;;;;10.30;5.10;;;;;;;3.24;63.69;97963.48;105393;1263;73239;-24
2023/03/31 03:54:25;;;;;;;8.70;3.90;;;;;;;3.24;63.97;97961.58;105502;1258;61062;-24
2023/03/31 03:56:54;;;;;;;6.10;3.70;;;;;;;3.25;63.90;97959.29;105255;1263;61990;-25
2023/03/31 03:59:22;;;;;;;7.50;4.20;;;;;;;3.29;63.92;97963.34;105283;1262;73987;-23
2023/03/31 04:01:54;;;;;;;5.90;3.30;;;;;;;3.29;64.71;97964.52;105480;1262;74214;-24
2023/03/31 04:04:23;;;;;;;9.00;5.30;;;;;;;3.32;64.24;97961.54;105462;1261;73909;-24
2023/03/31 04:06:52;;;;;;;13.70;5.30;;;;;;;3.34;64.40;97959.52;105139;1263;61183;-23
2023/03/31 04:09:20;;;;;;;6.80;3.90;;;;;;;3.37;64.53;97955.90;105220;1260;61775;-23
2023/03/31 04:11:52;;;;;;;6.70;2.80;;;;;;;3.39;64.74;97954.38;105323;1261;74617;-23
2023/03/31 04:14:21;;;;;;;9.70;4.00;;;;;;;3.41;64.78;97951.47;105333;1261;75714;-24
2023/03/31 04:16:51;;;;;;;7.20;4.30;;;;;;;3.44;65.10;97948.96;105569;1263;73048;-23
2023/03/31 04:19:20;;;;;;;9.90;4.80;;;;;;;3.45;64.89;97951.61;105599;1261;61178;-23
2023/03/31 04:21:49;;;;;;;8.80;4.60;;;;;;;3.47;65.06;97946.29;105376;1269;61677;-24
2023/03/31 04:24:20;;;;;;;5.70;3.00;;;;;;;3.49;65.27;97940.88;105260;1263;74501;-23
2023/03/31 04:26:49;;;;;;;5.30;2.60;;;;;;;3.51;65.60;97936.59;105155;1264;74863;-26
2023/03/31 04:29:22;;;;;;;5.90;2.30;;;;;;;3.54;65.73;97929.48;105281;1258;74429;-26
2023/03/31 04:31:57;;;;;;;7.40;3.90;;;;;;;3.56;66.02;97924.58;105242;1257;62091;-23
2023/03/31 04:34:33;;;;;;;5.20;2.70;;;;;;;3.64;65.82;97919.83;105323;1263;61166;-23
2023/03/31 04:37:03;;;;;;;7.00;3.00;;;;;;;4.26;64.45;97926.77;105435;1264;74668;-24
2023/03/31 04:39:31;;;;;;;5.60;3.20;;;;;;;4.68;63.06;97926.46;105432;1263;75870;-23
2023/03/31 04:42:01;;;;;;;8.70;4.20;;;;;;;4.72;62.67;97919.95;105619;1257;73247;-23
2023/03/31 04:44:30;;;;;;;8.30;5.00;;;;;;;4.60;63.32;97927.05;105622;1260;61061;-23
2023/03/31 04:47:01;;;;;;;7.10;4.20;;;;;;;4.48;64.00;97927.23;105505;1261;61634;-23
2023/03/31 04:49:34;;;;;;;8.60;3.90;;;;;;;4.35;64.62;97926.84;105450;1263;74337;-24
2023/03/31 04:52:04;;;;;;;8.50;4.10;;;;;;;4.29;64.67;97922.29;105495;1257;75870;-24
2023/03/31 05:25:19;;;;;;;6.20;3.80;;;;;;;4.91;64.96;97875.02;105577;1260;61083;-23
2023/03/31 05:27:48;;;;;;;9.30;5.90;;;;;;;4.79;64.74;97875.77;105590;1260;74549;-23
2023/03/31 05:44:51;;;;;;;5.40;2.00;;;;;;;4.25;66.27;97860.36;105624;1259;61163;-25
2023/03/31 05:47:19;;;;;;;9.90;4.40;;;;;;;4.25;66.11;97862.90;105681;1261;74595;-25
2023/03/31 05:49:49;;;;;;;5.40;3.70;;;;;;;4.23;66.64;97859.48;105645;1258;75905;-25
2023/03/31 05:52:18;;;;;;;9.90;4.70;;;;;;;4.23;66.72;97856.36;105645;1260;74227;-25
2023/03/31 05:54:47;;;;;;;8.80;4.70;;;;;;;4.23;67.16;97856.92;105618;1258;60994;-25
2023/03/31 05:57:17;;;;;;;8.60;3.90;;;;;;;4.28;67.75;97855.67;105300;1260;61521;-25
2023/03/31 05:59:46;;;;;;;7.40;4.20;;;;;;;4.87;66.51;97854.70;105341;1260;74299;-25
2023/03/31 06:02:15;;;;;;;8.40;4.60;;;;;;;5.39;65.45;97848.84;105405;1263;75608;-25
2023/03/31 06:04:45;;;;;;;9.30;4.60;;;;;;;5.49;65.02;97850.40;105339;1260;74244;-25
2023/03/31 06:07:16;;;;;;;10.00;4.90;;;;;;;5.52;65.25;97853.47;105619;1257;61073;-25
2023/03/31 06:09:45;;;;;;;9.90;4.90;;;;;;;5.44;65.70;97847.15;105632;1260;61677;-25
2023/03/31 06:12:15;;;;;;;6.10;3.80;;;;;;;5.33;66.10;97846.65;105591;1258;74623;-25
2023/03/31 06:14:44;;;;;;;7.70;4.60;;;;;;;5.27;66.48;97843.92;105643;1258;75803;-25
2023/03/31 06:17:13;;;;;;;7.10;4.30;;;;;;;5.16;67.61;97841.64;105562;1256;73952;-25
2023/03/31 06:19:42;;;;;;;7.50;4.40;;;;;;;5.11;67.97;97838.56;105511;1262;61146;-25
2023/03/31 06:22:10;;;;;;;6.80;4.40;;;;;;;5.05;68.89;97834.58;105432;1257;61909;-25
2023/03/31 06:24:40;;;;;;;8.80;3.70;;;;;;;5.06;69.70;97836.95;105308;1260;75440;-25
2023/03/31 06:27:09;;;;;;;11.30;4.50;;;;;;;5.59;68.22;97831.38;105427;1260;75727;-25
2023/03/31 06:29:40;;;;;;;6.10;4.20;;;;;;;6.07;66.95;97837.36;105324;1263;74198;-25
2023/03/31 06:32:09;;;;;;;10.70;5.10;;;;;;;6.07;66.73;97833.94;105620;1257;61084;-26
2023/03/31 06:34:37;;;;;;;8.80;4.40;;;;;;;5.89;67.32;97833.43;105678;1258;61757;-24
2023/03/31 06:37:08;;;;;;;8.30;4.70;;;;;;;5.71;68.20;97834.21;105668;1260;75380;-24
2023/03/31 06:39:36;;;;;;;6.70;4.20;;;;;;;5.59;69.18;97837.58;105545;1262;76050;-24
2023/03/31 06:42:06;;;;;;;6.10;3.90;;;;;;;5.50;69.84;97836.23;105599;1260;74342;-25
2023/03/31 06:44:39;;;;;;;7.50;4.60;;;;;;;5.34;71.03;97836.45;105469;1260;61339;-24
2023/03/31 06:47:08;;;;;;;9.10;3.80;;;;;;;5.32;71.88;97833.51;105655;1260;61832;-24
2023/03/31 06:49:37;;;;;;;6.80;3.40;;;;;;;5.72;71.90;97836.86;105682;1257;74974;-24
2023/03/31 06:52:07;;;;;;;6.80;4.30;;;;;;;6.03;71.84;97834.77;105662;1257;76555;-24
2023/03/31 06:54:36;;;;;;;6.30;3.90;;;;;;;6.05;71.81;97829.29;105483;1257;74233;-24
2023/03/31 06:57:06;;;;;;;9.40;4.10;;;;;;;5.90;72.89;97828.70;105449;1256;61896;-25
2023/03/31 06:59:35;;;;;;;10.60;4.30;;;;;;;5.70;74.03;97826.16;105509;1260;61661;-24
2023/03/31 07:02:04;;;;;;;9.70;4.70;;;;;;;5.65;74.62;97820.92;105654;1257;74369;-24
2023/03/31 07:04:33;;;;;;;5.80;3.40;;;;;;;5.49;76.48;97824.09;105504;1258;75443;-24
2023/03/31 07:07:02;;;;;;;7.90;4.30;;;;;;;5.90;76.39;97825.66;105516;1260;73210;-27
2023/03/31 07:09:31;;;;;;;13.40;7.20;;;;;;;6.19;75.91;97823.50;105575;1261;61876;-26
2023/03/31 07:12:00;;;;;;;12.20;6.90;;;;;;;6.15;75.99;97825.68;105634;1260;61699;-27
2023/03/31 07:14:29;;;;;;;11.10;6.20;;;;;;;5.98;76.42;97824.30;105675;1260;74438;-27
2023/03/31 07:16:58;;;;;;;16.10;7.60;;;;;;;5.84;77.00;97825.93;105681;1257;75547;-27
2023/03/31 07:19:31;;;;;;;18.10;8.70;;;;;;;5.69;78.74;97825.80;105477;1260;74183;-30
2023/03/31 07:22:00;;;;;;;7.90;4.80;;;;;;;6.10;77.84;97821.23;105466;1259;61750;-28
2023/03/31 07:24:29;;;;;;;8.50;6.00;;;;;;;6.09;78.13;97827.42;105472;1259;61493;-28
2023/03/31 07:26:58;;;;;;;11.30;6.50;;;;;;;6.05;78.19;97829.93;105642;1257;75712;-26
2023/03/31 07:29:27;;;;;;;8.70;5.50;;;;;;;5.79;79.44;97827.02;105518;1260;75964;-28
2023/03/31 07:32:00;;;;;;;8.00;5.30;;;;;;;5.56;80.01;97826.95;105467;1257;74172;-28
2023/03/31 07:34:56;;;;;;;7.20;4.70;;;;;;;5.58;81.56;97827.83;102694;1293;600526;-28
2023/03/31 07:37:25;;;;;;;7.80;4.80;;;;;;;6.00;79.96;97830.87;104889;1267;61959;-28
2023/03/31 07:39:54;;;;;;;4.40;3.50;;;;;;;6.14;79.51;97822.48;104919;1270;61892;-28
2023/03/31 07:42:23;;;;;;;8.60;5.80;;;;;;;5.98;79.80;97824.84;104921;1267;73902;-27
2023/03/31 07:44:51;;;;;;;9.10;6.10;;;;;;;5.72;80.99;97826.70;105129;1267;75801;-27
2023/03/31 07:47:20;;;;;;;11.50;5.20;;;;;;;5.65;81.75;97827.95;105066;1267;73951;-27
2023/03/31 07:49:49;;;;;;;8.10;5.60;;;;;;;5.94;82.05;97820.65;103537;1269;61261;-27
2023/03/31 07:52:18;;;;;;;10.10;6.10;;;;;;;6.23;80.99;97818.34;105232;1263;61154;-26
2023/03/31 07:54:47;;;;;;;9.90;6.50;;;;;;;6.26;80.88;97816.86;105167;1264;72839;-26
2023/03/31 07:57:18;;;;;;;11.30;5.60;;;;;;;6.17;81.21;97812.14;105089;1266;75583;-27
2023/03/31 07:59:47;;;;;;;5.80;4.20;;;;;;;5.94;81.98;97812.93;105246;1264;73817;-27
2023/03/31 08:02:16;;;;;;;10.80;6.40;;;;;;;5.88;83.55;97805.98;105143;1264;63195;-27
2023/03/31 08:04:46;;;;;;;14.30;6.00;;;;;;;6.41;81.86;97805.11;105271;1266;61068;-27
2023/03/31 08:07:15;;;;;;;10.80;7.00;;;;;;;6.44;81.42;97800.59;105311;1264;74576;-27
2023/03/31 08:09:44;;;;;;;10.40;6.90;;;;;;;6.27;82.36;97797.98;105253;1264;75580;-27
2023/03/31 08:12:14;;;;;;;5.50;3.50;;;;;;;6.19;82.71;97795.05;105223;1264;72839;-26
2023/03/31 08:14:43;;;;;;;8.50;5.50;;;;;;;5.92;84.26;97792.77;105633;1258;64004;-27
2023/03/31 08:17:19;;;;;;;8.80;5.40;;;;;;;6.47;83.99;97793.39;105611;1260;61871;-27
2023/03/31 08:19:49;;;;;;;6.60;5.10;;;;;;;6.68;82.55;97791.94;105664;1257;74338;-26
2023/03/31 08:22:17;;;;;;;8.20;5.40;;;;;;;6.47;82.94;97789.08;105570;1262;75934;-27
2023/03/31 08:24:48;;;;;;;5.40;4.00;;;;;;;6.26;83.58;97792.19;105428;1263;73922;-26
2023/03/31 08:27:18;;;;;;;5.80;3.80;;;;;;;6.24;84.81;97789.50;105224;1257;63371;-26
2023/03/31 08:29:54;;;;;;;6.50;4.50;;;;;;;6.90;82.06;97784.95;105471;1261;61602;-27
2023/03/31 08:32:23;;;;;;;9.10;5.60;;;;;;;6.99;81.52;97790.70;105623;1256;73761;-27
2023/03/31 08:34:52;;;;;;;9.70;4.60;;;;;;;6.85;81.48;97785.16;105579;1257;75856;-27
2023/03/31 08:37:21;;;;;;;10.00;5.40;;;;;;;6.71;81.98;97781.52;105610;1260;74335;-26
2023/03/31 08:39:49;;;;;;;8.00;4.70;;;;;;;6.28;84.53;97784.60;105606;1256;61909;-26
2023/03/31 08:42:25;;;;;;;8.70;4.70;;;;;;;6.60;84.18;97783.34;105649;1261;61842;-26
2023/03/31 08:45:05;;;;;;;11.60;4.30;;;;;;;6.92;82.91;97784.21;105568;1257;74673;-26
2023/03/31 08:47:35;;;;;;;5.20;4.30;;;;;;;6.76;83.21;97775.08;105544;1258;75620;-27
2023/03/31 08:50:10;;;;;;;8.00;5.30;;;;;;;6.64;83.87;97772.27;105618;1257;73067;-26
2023/03/31 08:53:08;;;;;;;7.20;4.00;;;;;;;6.37;85.43;97772.86;105571;1258;61969;-26
2023/03/31 08:55:50;;;;;;;6.90;4.00;;;;;;;6.89;85.18;97773.99;105304;1262;61644;-26
2023/03/31 08:58:42;;;;;;;9.60;5.40;;;;;;;7.08;83.26;97772.02;105399;1257;74617;-26
2023/03/31 09:01:24;;;;;;;10.20;5.00;;;;;;;6.98;84.17;97768.05;105605;1257;74637;-26
2023/03/31 09:04:19;;;;;;;7.00;4.40;;;;;;;6.83;84.31;97764.63;105560;1257;74400;-26
2023/03/31 09:07:13;;;;;;;8.10;4.30;;;;;;;6.58;85.92;97760.68;105353;1257;62550;-26
2023/03/31 09:10:00;;;;;;;5.60;4.50;;;;;;;7.10;84.42;97760.45;105349;1257;61151;-26
2023/03/31 09:12:42;;;;;;;6.00;4.30;;;;;;;7.02;84.23;97755.77;105337;1261;74403;-26
2023/03/31 09:15:13;;;;;;;6.10;4.50;;;;;;;7.03;84.13;97752.71;105535;1263;74994;-26
2023/03/31 09:17:43;;;;;;;6.80;5.10;;;;;;;6.86;84.76;97749.20;105268;1257;74244;-26
2023/03/31 09:20:32;;;;;;;9.60;5.30;;;;;;;6.76;85.45;97751.09;105556;1257;62553;-26
2023/03/31 09:23:19;;;;;;;6.70;4.80;;;;;;;7.36;84.29;97747.12;105554;1262;61860;-26
2023/03/31 09:25:47;;;;;;;9.90;6.90;;;;;;;7.46;83.04;97747.45;105357;1264;74265;-26
2023/03/31 09:28:37;;;;;;;12.40;6.40;;;;;;;7.22;83.24;97745.92;105541;1257;75884;-25
2023/03/31 09:31:16;;;;;;;25.80;12.50;;;;;;;7.02;84.09;97740.73;105548;1261;74168;-26
2023/03/31 09:33:46;;;;;;;6.30;4.50;;;;;;;6.97;84.77;97739.98;105534;1257;63494;-26
2023/03/31 09:36:17;;;;;;;4.90;3.60;;;;;;;7.43;83.97;97739.27;105528;1263;61951;-25
2023/03/31 09:38:46;;;;;;;4.50;3.70;;;;;;;7.67;82.26;97737.60;105266;1259;73295;-26
2023/03/31 09:41:15;;;;;;;5.40;4.30;;;;;;;7.37;83.64;97738.76;105564;1257;75864;-26
2023/03/31 09:43:45;;;;;;;8.00;4.50;;;;;;;7.29;83.44;97732.05;105302;1263;74614;-25
2023/03/31 09:46:20;;;;;;;4.70;3.00;;;;;;;7.02;84.84;97730.73;105200;1257;63351;-25
2023/03/31 09:48:57;;;;;;;6.00;3.90;;;;;;;7.30;84.67;97727.77;105526;1258;61097;-26
2023/03/31 09:51:29;;;;;;;6.40;4.00;;;;;;;7.61;83.39;97728.65;105285;1264;74586;-26
2023/03/31 09:54:18;;;;;;;6.20;4.30;;;;;;;7.63;82.52;97726.97;105280;1264;74986;-26
2023/03/31 09:56:51;;;;;;;6.00;4.50;;;;;;;7.35;84.03;97725.75;105575;1257;73120;-26
2023/03/31 09:59:33;;;;;;;5.00;3.90;;;;;;;7.23;84.58;97726.29;105478;1258;63426;-26
2023/03/31 10:02:16;;;;;;;5.90;3.90;;;;;;;7.75;83.55;97721.23;105538;1262;61677;-28
2023/03/31 10:04:45;;;;;;;3.90;3.50;;;;;;;8.02;81.81;97721.83;105562;1258;74592;-26
2023/03/31 10:07:19;;;;;;;7.90;5.00;;;;;;;7.86;82.21;97715.52;105579;1260;74971;-26
2023/03/31 10:09:48;;;;;;;6.10;5.00;;;;;;;7.37;84.27;97714.90;105459;1257;73167;-26
2023/03/31 10:12:23;;;;;;;5.40;3.60;;;;;;;7.28;85.22;97712.79;105593;1257;63214;-26
2023/03/31 10:14:53;;;;;;;5.00;3.80;;;;;;;7.74;84.04;97712.98;105494;1257;61097;-26
2023/03/31 10:17:23;;;;;;;4.50;3.30;;;;;;;8.05;82.57;97712.54;105292;1258;73233;-26
2023/03/31 10:19:55;;;;;;;5.70;4.10;;;;;;;7.90;82.45;97714.63;105316;1264;74935;-26
2023/03/31 10:22:29;;;;;;;7.40;4.20;;;;;;;7.83;82.23;97717.72;105309;1257;73754;-26
2023/03/31 10:25:27;;;;;;;7.70;4.50;;;;;;;7.62;82.87;97717.05;105481;1257;61070;-27
2023/03/31 10:27:56;;;;;;;6.80;4.00;;;;;;;7.41;84.53;97719.27;105482;1261;61624;-26
2023/03/31 10:30:28;;;;;;;7.40;4.70;;;;;;;7.72;83.82;97714.22;105458;1257;74645;-24
2023/03/31 10:32:56;;;;;;;5.80;5.00;;;;;;;7.84;83.58;97709.34;105101;1257;74821;-24
2023/03/31 10:35:32;;;;;;;6.30;3.90;;;;;;;7.77;83.31;97709.95;105149;1257;73895;-25
2023/03/31 10:38:06;;;;;;;7.20;4.40;;;;;;;7.46;84.72;97710.70;105091;1257;61177;-24
2023/03/31 10:40:35;;;;;;;6.00;4.30;;;;;;;7.39;85.10;97709.53;105091;1257;61128;-24
2023/03/31 10:43:15;;;;;;;7.30;4.20;;;;;;;7.89;83.97;97709.70;105188;1257;74264;-24
2023/03/31 10:45:49;;;;;;;5.80;4.40;;;;;;;8.11;82.53;97710.34;105226;1257;75743;-24
2023/03/31 10:48:27;;;;;;;6.10;4.80;;;;;;;8.05;82.37;97706.86;105171;1257;74403;-24
2023/03/31 10:51:27;;;;;;;6.30;4.70;;;;;;;7.80;82.85;97704.50;105098;1262;62107;-24
2023/03/31 10:54:02;;;;;;;6.70;4.50;;;;;;;7.45;84.88;97702.14;105635;1257;61177;-24
2023/03/31 10:56:36;;;;;;;6.50;4.80;;;;;;;7.81;84.64;97698.55;105713;1253;74764;-24
2023/03/31 10:59:11;;;;;;;10.30;5.20;;;;;;;8.23;83.19;97697.46;105721;1254;75188;-24
2023/03/31 11:01:52;;;;;;;9.50;5.80;;;;;;;8.20;82.60;97693.39;105640;1253;74351;-24
2023/03/31 11:04:59;;;;;;;8.90;5.90;;;;;;;8.00;83.17;97691.15;105636;1254;62094;-24
2023/03/31 11:07:37;;;;;;;11.10;6.00;;;;;;;7.69;84.51;97681.64;105111;1260;61864;-25
2023/03/31 11:10:27;;;;;;;9.60;5.60;;;;;;;7.73;85.33;97680.95;104994;1263;73569;-26
2023/03/31 11:13:04;;;;;;;12.30;7.10;;;;;;;8.31;83.51;97679.63;105060;1260;77341;-23
2023/03/31 11:15:42;;;;;;;11.30;7.30;;;;;;;8.39;82.69;97678.98;104978;1260;74183;-23
2023/03/31 11:18:17;;;;;;;14.30;7.00;;;;;;;8.20;82.79;97676.95;105062;1260;61954;-25
2023/03/31 11:20:57;;;;;;;11.50;7.30;;;;;;;7.98;83.59;97667.83;105062;1263;61852;-23
2023/03/31 11:23:52;;;;;;;8.40;4.70;;;;;;;7.83;84.58;97661.73;105011;1260;72504;-24
2023/03/31 11:26:52;;;;;;;18.50;7.70;;;;;;;8.31;84.50;97662.98;105036;1260;75780;-24
2023/03/31 11:29:21;;;;;;;15.10;8.10;;;;;;;8.62;83.23;97665.64;105069;1264;74146;-24
2023/03/31 11:31:55;;;;;;;15.00;8.20;;;;;;;8.43;83.83;97661.02;105077;1263;61102;-24
2023/03/31 11:34:46;;;;;;;12.30;7.80;;;;;;;8.25;84.56;97658.52;105051;1264;61654;-24
2023/03/31 11:37:23;;;;;;;13.20;7.30;;;;;;;8.07;85.71;97657.14;105039;1260;74301;-24
2023/03/31 11:40:03;;;;;;;11.30;6.60;;;;;;;8.10;85.56;97649.21;105414;1257;75280;-24
2023/03/31 11:42:46;;;;;;;11.60;7.00;;;;;;;8.73;83.77;97651.80;105326;1257;73136;-24
2023/03/31 11:45:21;;;;;;;15.20;8.20;;;;;;;8.98;82.51;97650.11;105271;1260;62196;-24
2023/03/31 11:47:51;;;;;;;12.70;7.80;;;;;;;8.78;82.05;97652.76;105606;1256;61206;-24
2023/03/31 11:50:25;;;;;;;12.80;7.80;;;;;;;8.51;82.87;97655.75;105519;1257;74547;-24
2023/03/31 11:53:16;;;;;;;12.60;7.90;;;;;;;8.27;83.47;97653.23;105581;1256;74903;-24
2023/03/31 11:55:47;;;;;;;12.70;6.40;;;;;;;8.20;84.72;97646.24;105266;1257;72689;-23
2023/03/31 11:58:34;;;;;;;10.50;6.90;;;;;;;8.85;83.73;97643.23;105119;1255;61934;-23
2023/03/31 12:01:07;;;;;;;11.40;7.50;;;;;;;9.09;82.06;97649.73;105263;1256;61049;-23
2023/03/31 12:03:40;;;;;;;9.60;6.90;;;;;;;8.94;82.25;97643.77;105348;1257;74364;-24
2023/03/31 12:06:17;;;;;;;10.40;7.30;;;;;;;8.71;82.60;97646.30;105199;1257;75723;-23
2023/03/31 12:08:57;;;;;;;9.00;5.40;;;;;;;8.47;83.24;97643.38;105209;1257;74208;-23
2023/03/31 12:11:41;;;;;;;10.30;6.50;;;;;;;8.46;84.20;97639.51;105266;1254;63610;-24
2023/03/31 12:14:35;;;;;;;11.20;7.00;;;;;;;8.95;83.06;97636.51;105219;1257;61427;-23
2023/03/31 12:17:13;;;;;;;13.10;8.10;;;;;;;9.04;82.12;97635.35;105610;1257;75371;-23
2023/03/31 12:19:46;;;;;;;12.50;7.20;;;;;;;8.75;82.48;97631.58;105276;1261;74822;-26
2023/03/31 12:22:35;;;;;;;10.70;7.30;;;;;;;8.54;83.20;97636.26;105160;1257;74202;-25
2023/03/31 12:25:05;;;;;;;9.10;6.10;;;;;;;8.36;84.50;97634.17;105139;1256;62409;-25
2023/03/31 12:27:34;;;;;;;10.70;7.90;;;;;;;8.81;83.82;97627.04;105489;1260;61728;-24
2023/03/31 12:30:14;;;;;;;12.70;7.10;;;;;;;9.12;82.24;97625.23;105511;1257;75408;-26
2023/03/31 12:32:53;;;;;;;9.40;6.60;;;;;;;9.05;82.11;97623.48;105306;1260;76120;-26
2023/03/31 12:35:47;;;;;;;11.10;7.30;;;;;;;8.85;82.89;97628.17;105281;1261;73173;-26
2023/03/31 12:38:38;;;;;;;10.00;7.20;;;;;;;8.63;84.04;97630.23;105587;1253;61500;-26
2023/03/31 12:41:20;;;;;;;8.50;5.70;;;;;;;8.50;85.01;97627.98;105483;1256;61894;-25
2023/03/31 12:44:07;;;;;;;11.30;6.90;;;;;;;9.09;83.32;97622.05;105301;1261;74179;-25
2023/03/31 12:46:46;;;;;;;9.60;7.60;;;;;;;9.40;81.59;97625.64;105488;1254;75770;-27
2023/03/31 12:49:21;;;;;;;11.60;7.50;;;;;;;9.29;81.70;97626.16;105292;1254;73545;-26
2023/03/31 12:52:32;;;;;;;11.60;7.60;;;;;;;9.05;82.21;97620.72;105447;1254;61821;-26
2023/03/31 12:55:16;;;;;;;13.90;8.30;;;;;;;8.70;83.92;97621.98;105081;1264;61845;-25
2023/03/31 12:57:45;;;;;;;10.80;6.50;;;;;;;8.54;84.95;97624.89;105044;1260;74117;-25
2023/03/31 13:00:21;;;;;;;9.30;6.30;;;;;;;8.98;84.32;97621.67;105091;1260;74863;-25